Eureka, Kansas
Current Conditions -  °F | °C
As of 5:15 AM on Sunday 21 Dec 2014 (Local Time) from KEQA Reporting Station
Overcast Overcast  
Wind Chill: 34°   Ceiling: 1700
Heat Index: 41°   Visibility: 10mi
Dew Point: 37°   Wind: 12mph
Humidity: 87%   Direction: 170°S
Pressure: 30"   Gusts: NA
Location:  37.82°N, 96.29°W
Report Text: KEQA 211115Z AUTO 17010KT 10SM SCT010 OVC017 05/03 A3000 RMK AO2
Loading
Personal Weather Stations






























Interactive Weather Map New forecast layout! Learn more

10-Day Weather Forecast

Advertisements
Track Severe Weather on mobile